sensor_id;sensor_type;location;lat;lon;timestamp;temperature;humidity
22558;DHT22;11445;53.816;8.902;2023-08-07T00:00:37;17.30;99.90
22558;DHT22;11445;53.816;8.902;2023-08-07T00:03:04;17.30;99.90
22558;DHT22;11445;53.816;8.902;2023-08-07T00:05:30;17.30;99.90
22558;DHT22;11445;53.816;8.902;2023-08-07T00:07:59;17.30;99.90
22558;DHT22;11445;53.816;8.902;2023-08-07T00:10:25;17.30;99.90
22558;DHT22;11445;53.816;8.902;2023-08-07T00:12:52;17.30;99.90
22558;DHT22;11445;53.816;8.902;2023-08-07T00:15:19;17.30;99.90
22558;DHT22;11445;53.816;8.902;2023-08-07T00:17:46;17.40;99.90
22558;DHT22;11445;53.816;8.902;2023-08-07T00:20:13;17.30;99.90
22558;DHT22;11445;53.816;8.902;2023-08-07T00:22:40;17.30;99.90
22558;DHT22;11445;53.816;8.902;2023-08-07T00:25:08;17.30;99.90
22558;DHT22;11445;53.816;8.902;2023-08-07T00:27:35;17.40;99.90
22558;DHT22;11445;53.816;8.902;2023-08-07T00:30:02;17.40;99.90
22558;DHT22;11445;53.816;8.902;2023-08-07T00:32:29;17.40;99.90
22558;DHT22;11445;53.816;8.902;2023-08-07T00:34:56;17.40;99.90
22558;DHT22;11445;53.816;8.902;2023-08-07T00:37:23;17.40;99.90
22558;DHT22;11445;53.816;8.902;2023-08-07T00:39:49;17.30;99.90
22558;DHT22;11445;53.816;8.902;2023-08-07T00:42:17;17.20;99.90
22558;DHT22;11445;53.816;8.902;2023-08-07T00:44:44;17.00;99.90
22558;DHT22;11445;53.816;8.902;2023-08-07T00:47:11;16.90;99.90
22558;DHT22;11445;53.816;8.902;2023-08-07T00:49:38;16.80;99.90
22558;DHT22;11445;53.816;8.902;2023-08-07T00:52:06;16.60;99.90
22558;DHT22;11445;53.816;8.902;2023-08-07T00:54:33;16.60;99.90
22558;DHT22;11445;53.816;8.902;2023-08-07T00:57:09;16.40;99.90
22558;DHT22;11445;53.816;8.902;2023-08-07T00:59:38;16.40;99.90
22558;DHT22;11445;53.816;8.902;2023-08-07T01:02:06;16.30;99.90
22558;DHT22;11445;53.816;8.902;2023-08-07T01:04:33;16.20;99.90
22558;DHT22;11445;53.816;8.902;2023-08-07T01:07:00;16.20;99.90
22558;DHT22;11445;53.816;8.902;2023-08-07T01:09:27;16.20;99.90
22558;DHT22;11445;53.816;8.902;2023-08-07T01:11:59;16.20;99.90
22558;DHT22;11445;53.816;8.902;2023-08-07T01:14:36;16.20;99.90
22558;DHT22;11445;53.816;8.902;2023-08-07T01:17:09;16.20;99.90
22558;DHT22;11445;53.816;8.902;2023-08-07T01:19:37;16.20;99.90
22558;DHT22;11445;53.816;8.902;2023-08-07T01:22:07;16.20;99.90
22558;DHT22;11445;53.816;8.902;2023-08-07T01:24:34;16.20;99.90
22558;DHT22;11445;53.816;8.902;2023-08-07T01:27:10;16.20;99.90
22558;DHT22;11445;53.816;8.902;2023-08-07T01:29:44;16.20;99.90
22558;DHT22;11445;53.816;8.902;2023-08-07T01:32:16;16.20;99.90
22558;DHT22;11445;53.816;8.902;2023-08-07T01:34:45;16.30;99.90
22558;DHT22;11445;53.816;8.902;2023-08-07T01:37:14;16.20;99.90
22558;DHT22;11445;53.816;8.902;2023-08-07T01:39:42;16.30;99.90
22558;DHT22;11445;53.816;8.902;2023-08-07T01:42:10;16.30;99.90
22558;DHT22;11445;53.816;8.902;2023-08-07T01:44:37;16.20;99.90
22558;DHT22;11445;53.816;8.902;2023-08-07T01:47:05;16.20;99.90
22558;DHT22;11445;53.816;8.902;2023-08-07T01:49:32;16.20;99.90
22558;DHT22;11445;53.816;8.902;2023-08-07T01:51:58;16.30;99.90
22558;DHT22;11445;53.816;8.902;2023-08-07T01:54:27;16.30;99.90
22558;DHT22;11445;53.816;8.902;2023-08-07T01:56:53;16.30;99.90
22558;DHT22;11445;53.816;8.902;2023-08-07T01:59:21;16.40;99.90
22558;DHT22;11445;53.816;8.902;2023-08-07T02:01:47;16.50;99.90
22558;DHT22;11445;53.816;8.902;2023-08-07T02:04:14;16.50;99.90
22558;DHT22;11445;53.816;8.902;2023-08-07T02:06:41;16.60;99.90
22558;DHT22;11445;53.816;8.902;2023-08-07T02:09:08;16.60;99.90
22558;DHT22;11445;53.816;8.902;2023-08-07T02:11:36;16.70;99.90
22558;DHT22;11445;53.816;8.902;2023-08-07T02:14:03;16.70;99.90
22558;DHT22;11445;53.816;8.902;2023-08-07T02:16:29;16.70;99.90
22558;DHT22;11445;53.816;8.902;2023-08-07T02:18:56;16.80;99.90
22558;DHT22;11445;53.816;8.902;2023-08-07T02:21:23;16.90;99.90
22558;DHT22;11445;53.816;8.902;2023-08-07T02:23:50;16.90;99.90
22558;DHT22;11445;53.816;8.902;2023-08-07T02:26:16;17.00;99.90
22558;DHT22;11445;53.816;8.902;2023-08-07T02:28:45;17.00;99.90
22558;DHT22;11445;53.816;8.902;2023-08-07T02:31:11;17.00;99.90
22558;DHT22;11445;53.816;8.902;2023-08-07T02:33:38;17.00;99.90
22558;DHT22;11445;53.816;8.902;2023-08-07T02:36:06;17.10;99.90
22558;DHT22;11445;53.816;8.902;2023-08-07T02:38:33;17.10;99.90
22558;DHT22;11445;53.816;8.902;2023-08-07T02:41:00;17.10;99.90
22558;DHT22;11445;53.816;8.902;2023-08-07T02:43:27;17.10;99.90
22558;DHT22;11445;53.816;8.902;2023-08-07T02:45:55;17.10;99.90
22558;DHT22;11445;53.816;8.902;2023-08-07T02:48:22;17.20;99.90
22558;DHT22;11445;53.816;8.902;2023-08-07T02:50:49;17.20;99.90
22558;DHT22;11445;53.816;8.902;2023-08-07T02:53:17;17.10;99.90
22558;DHT22;11445;53.816;8.902;2023-08-07T02:55:44;17.10;99.90
22558;DHT22;11445;53.816;8.902;2023-08-07T02:58:10;17.10;99.90
22558;DHT22;11445;53.816;8.902;2023-08-07T03:00:37;17.10;99.90
22558;DHT22;11445;53.816;8.902;2023-08-07T03:03:05;17.10;99.90
22558;DHT22;11445;53.816;8.902;2023-08-07T03:05:32;17.10;99.90
22558;DHT22;11445;53.816;8.902;2023-08-07T03:07:59;17.10;99.90
22558;DHT22;11445;53.816;8.902;2023-08-07T03:10:26;17.10;99.90
22558;DHT22;11445;53.816;8.902;2023-08-07T03:12:52;17.10;99.90
22558;DHT22;11445;53.816;8.902;2023-08-07T03:15:19;17.10;99.90
22558;DHT22;11445;53.816;8.902;2023-08-07T03:17:46;17.10;99.90
22558;DHT22;11445;53.816;8.902;2023-08-07T03:20:14;17.00;99.90
22558;DHT22;11445;53.816;8.902;2023-08-07T03:22:41;17.00;99.90
22558;DHT22;11445;53.816;8.902;2023-08-07T03:25:08;17.00;99.90
22558;DHT22;11445;53.816;8.902;2023-08-07T03:27:35;17.00;99.90
22558;DHT22;11445;53.816;8.902;2023-08-07T03:30:03;17.00;99.90
22558;DHT22;11445;53.816;8.902;2023-08-07T03:32:30;17.00;99.90
22558;DHT22;11445;53.816;8.902;2023-08-07T03:34:56;17.00;99.90
22558;DHT22;11445;53.816;8.902;2023-08-07T03:37:25;17.00;99.90
22558;DHT22;11445;53.816;8.902;2023-08-07T03:39:51;16.90;99.90
22558;DHT22;11445;53.816;8.902;2023-08-07T03:42:18;16.90;99.90
22558;DHT22;11445;53.816;8.902;2023-08-07T03:44:45;16.90;99.90
22558;DHT22;11445;53.816;8.902;2023-08-07T03:47:12;16.90;99.90
22558;DHT22;11445;53.816;8.902;2023-08-07T03:49:39;16.90;99.90
22558;DHT22;11445;53.816;8.902;2023-08-07T03:52:06;16.90;99.90
22558;DHT22;11445;53.816;8.902;2023-08-07T03:54:34;16.90;99.90
22558;DHT22;11445;53.816;8.902;2023-08-07T03:57:01;16.90;99.90
22558;DHT22;11445;53.816;8.902;2023-08-07T03:59:28;16.90;99.90
22558;DHT22;11445;53.816;8.902;2023-08-07T04:01:55;16.90;99.90
22558;DHT22;11445;53.816;8.902;2023-08-07T04:04:22;16.90;99.90
22558;DHT22;11445;53.816;8.902;2023-08-07T04:06:49;16.90;99.90
22558;DHT22;11445;53.816;8.902;2023-08-07T04:09:15;16.90;99.90
22558;DHT22;11445;53.816;8.902;2023-08-07T04:11:44;16.90;99.90
22558;DHT22;11445;53.816;8.902;2023-08-07T04:14:11;17.00;99.90
22558;DHT22;11445;53.816;8.902;2023-08-07T04:16:38;17.00;99.90
22558;DHT22;11445;53.816;8.902;2023-08-07T04:19:05;17.00;99.90
22558;DHT22;11445;53.816;8.902;2023-08-07T04:21:33;17.00;99.90
22558;DHT22;11445;53.816;8.902;2023-08-07T04:23:59;16.90;99.90
22558;DHT22;11445;53.816;8.902;2023-08-07T04:26:26;16.90;99.90
22558;DHT22;11445;53.816;8.902;2023-08-07T04:28:54;16.90;99.90
22558;DHT22;11445;53.816;8.902;2023-08-07T04:31:21;16.90;99.90
22558;DHT22;11445;53.816;8.902;2023-08-07T04:33:48;16.90;99.90
22558;DHT22;11445;53.816;8.902;2023-08-07T04:36:15;16.90;99.90
22558;DHT22;11445;53.816;8.902;2023-08-07T04:38:41;16.90;99.90
22558;DHT22;11445;53.816;8.902;2023-08-07T04:41:08;16.90;99.90
22558;DHT22;11445;53.816;8.902;2023-08-07T04:43:35;16.90;99.90
22558;DHT22;11445;53.816;8.902;2023-08-07T04:46:04;16.90;99.90
22558;DHT22;11445;53.816;8.902;2023-08-07T04:48:30;16.90;99.90
22558;DHT22;11445;53.816;8.902;2023-08-07T04:50:58;16.90;99.90
22558;DHT22;11445;53.816;8.902;2023-08-07T04:53:25;16.80;99.90
22558;DHT22;11445;53.816;8.902;2023-08-07T04:55:52;16.80;99.90
22558;DHT22;11445;53.816;8.902;2023-08-07T04:58:18;16.80;99.90
22558;DHT22;11445;53.816;8.902;2023-08-07T05:00:45;16.80;99.90
22558;DHT22;11445;53.816;8.902;2023-08-07T05:03:14;16.80;99.90
22558;DHT22;11445;53.816;8.902;2023-08-07T05:05:43;16.80;99.90
22558;DHT22;11445;53.816;8.902;2023-08-07T05:08:10;16.70;99.90
22558;DHT22;11445;53.816;8.902;2023-08-07T05:10:37;16.70;99.90
22558;DHT22;11445;53.816;8.902;2023-08-07T05:13:04;16.70;99.90
22558;DHT22;11445;53.816;8.902;2023-08-07T05:15:31;16.70;99.90
22558;DHT22;11445;53.816;8.902;2023-08-07T05:17:58;16.70;99.90
22558;DHT22;11445;53.816;8.902;2023-08-07T05:20:26;16.80;99.90
22558;DHT22;11445;53.816;8.902;2023-08-07T05:22:53;16.80;99.90
22558;DHT22;11445;53.816;8.902;2023-08-07T05:25:21;16.80;99.90
22558;DHT22;11445;53.816;8.902;2023-08-07T05:27:48;16.80;99.90
22558;DHT22;11445;53.816;8.902;2023-08-07T05:30:15;16.80;99.90
22558;DHT22;11445;53.816;8.902;2023-08-07T05:32:42;16.90;99.90
22558;DHT22;11445;53.816;8.902;2023-08-07T05:35:09;16.90;99.90
22558;DHT22;11445;53.816;8.902;2023-08-07T05:37:37;16.80;99.90
22558;DHT22;11445;53.816;8.902;2023-08-07T05:40:05;16.90;99.90
22558;DHT22;11445;53.816;8.902;2023-08-07T05:42:32;16.90;99.90
22558;DHT22;11445;53.816;8.902;2023-08-07T05:45:00;16.90;99.90
22558;DHT22;11445;53.816;8.902;2023-08-07T05:47:27;17.00;99.90
22558;DHT22;11445;53.816;8.902;2023-08-07T05:49:54;17.00;99.90
22558;DHT22;11445;53.816;8.902;2023-08-07T05:52:21;17.00;99.90
22558;DHT22;11445;53.816;8.902;2023-08-07T05:54:49;16.90;99.90
22558;DHT22;11445;53.816;8.902;2023-08-07T05:57:17;16.90;99.90
22558;DHT22;11445;53.816;8.902;2023-08-07T05:59:44;16.90;99.90
22558;DHT22;11445;53.816;8.902;2023-08-07T06:02:10;16.90;99.90
22558;DHT22;11445;53.816;8.902;2023-08-07T06:04:37;16.90;99.90
22558;DHT22;11445;53.816;8.902;2023-08-07T06:07:05;16.90;99.90
22558;DHT22;11445;53.816;8.902;2023-08-07T06:09:32;16.90;99.90
22558;DHT22;11445;53.816;8.902;2023-08-07T06:12:00;16.90;99.90
22558;DHT22;11445;53.816;8.902;2023-08-07T06:14:27;17.00;99.90
22558;DHT22;11445;53.816;8.902;2023-08-07T06:16:54;17.00;99.90
22558;DHT22;11445;53.816;8.902;2023-08-07T06:19:23;17.00;99.90
22558;DHT22;11445;53.816;8.902;2023-08-07T06:21:52;17.10;99.90
22558;DHT22;11445;53.816;8.902;2023-08-07T06:24:19;17.10;99.90
22558;DHT22;11445;53.816;8.902;2023-08-07T06:26:46;17.10;99.90
22558;DHT22;11445;53.816;8.902;2023-08-07T06:29:14;17.10;99.90
22558;DHT22;11445;53.816;8.902;2023-08-07T06:31:41;17.00;99.90
22558;DHT22;11445;53.816;8.902;2023-08-07T06:34:09;17.00;99.90
22558;DHT22;11445;53.816;8.902;2023-08-07T06:36:35;17.00;99.90
22558;DHT22;11445;53.816;8.902;2023-08-07T06:39:02;17.00;99.90
22558;DHT22;11445;53.816;8.902;2023-08-07T06:41:29;17.10;99.90
22558;DHT22;11445;53.816;8.902;2023-08-07T06:43:56;17.10;99.90
22558;DHT22;11445;53.816;8.902;2023-08-07T06:46:24;17.10;99.90
22558;DHT22;11445;53.816;8.902;2023-08-07T06:48:53;17.10;99.90
22558;DHT22;11445;53.816;8.902;2023-08-07T06:51:19;17.00;99.90
22558;DHT22;11445;53.816;8.902;2023-08-07T06:53:46;17.00;99.90
22558;DHT22;11445;53.816;8.902;2023-08-07T06:56:13;17.00;99.90
22558;DHT22;11445;53.816;8.902;2023-08-07T06:58:40;17.00;99.90
22558;DHT22;11445;53.816;8.902;2023-08-07T07:01:07;16.80;99.90
22558;DHT22;11445;53.816;8.902;2023-08-07T07:03:35;16.60;99.90
22558;DHT22;11445;53.816;8.902;2023-08-07T07:06:02;16.60;99.90
22558;DHT22;11445;53.816;8.902;2023-08-07T07:08:29;16.50;99.90
22558;DHT22;11445;53.816;8.902;2023-08-07T07:10:55;16.60;99.90
22558;DHT22;11445;53.816;8.902;2023-08-07T07:13:23;16.60;99.90
22558;DHT22;11445;53.816;8.902;2023-08-07T07:15:53;16.60;99.90
22558;DHT22;11445;53.816;8.902;2023-08-07T07:18:20;16.70;99.90
22558;DHT22;11445;53.816;8.902;2023-08-07T07:20:56;16.60;99.90
22558;DHT22;11445;53.816;8.902;2023-08-07T07:23:23;16.70;99.90
22558;DHT22;11445;53.816;8.902;2023-08-07T07:25:50;16.80;99.90
22558;DHT22;11445;53.816;8.902;2023-08-07T07:28:16;16.90;99.90
22558;DHT22;11445;53.816;8.902;2023-08-07T07:30:43;17.00;99.90
22558;DHT22;11445;53.816;8.902;2023-08-07T07:33:10;17.10;99.90
22558;DHT22;11445;53.816;8.902;2023-08-07T07:35:39;17.10;99.90
22558;DHT22;11445;53.816;8.902;2023-08-07T07:38:07;17.20;99.90
22558;DHT22;11445;53.816;8.902;2023-08-07T07:40:35;17.30;99.90
22558;DHT22;11445;53.816;8.902;2023-08-07T07:43:03;17.30;99.90
22558;DHT22;11445;53.816;8.902;2023-08-07T07:45:30;17.30;99.90
22558;DHT22;11445;53.816;8.902;2023-08-07T07:47:59;17.30;99.90
22558;DHT22;11445;53.816;8.902;2023-08-07T07:50:26;17.30;99.90
22558;DHT22;11445;53.816;8.902;2023-08-07T07:52:52;17.30;99.90
22558;DHT22;11445;53.816;8.902;2023-08-07T07:55:21;17.20;99.90
22558;DHT22;11445;53.816;8.902;2023-08-07T07:57:47;17.20;99.90
22558;DHT22;11445;53.816;8.902;2023-08-07T08:00:15;17.20;99.90
22558;DHT22;11445;53.816;8.902;2023-08-07T08:02:42;17.20;99.90
22558;DHT22;11445;53.816;8.902;2023-08-07T08:05:09;17.20;99.90
22558;DHT22;11445;53.816;8.902;2023-08-07T08:07:37;17.20;99.90
22558;DHT22;11445;53.816;8.902;2023-08-07T08:10:05;17.30;99.90
22558;DHT22;11445;53.816;8.902;2023-08-07T08:12:34;17.20;99.90
22558;DHT22;11445;53.816;8.902;2023-08-07T08:15:00;17.30;99.90
22558;DHT22;11445;53.816;8.902;2023-08-07T08:17:28;17.40;99.90
22558;DHT22;11445;53.816;8.902;2023-08-07T08:19:54;17.30;99.90
22558;DHT22;11445;53.816;8.902;2023-08-07T08:22:21;17.30;99.90
22558;DHT22;11445;53.816;8.902;2023-08-07T08:24:48;17.30;99.90
22558;DHT22;11445;53.816;8.902;2023-08-07T08:27:15;17.30;99.90
22558;DHT22;11445;53.816;8.902;2023-08-07T08:29:44;17.30;99.90
22558;DHT22;11445;53.816;8.902;2023-08-07T08:32:11;17.40;99.90
22558;DHT22;11445;53.816;8.902;2023-08-07T08:34:38;17.40;99.90
22558;DHT22;11445;53.816;8.902;2023-08-07T08:37:05;17.40;99.90
22558;DHT22;11445;53.816;8.902;2023-08-07T08:39:32;17.40;99.90
22558;DHT22;11445;53.816;8.902;2023-08-07T08:41:59;17.40;99.90
22558;DHT22;11445;53.816;8.902;2023-08-07T08:44:26;17.30;99.90
22558;DHT22;11445;53.816;8.902;2023-08-07T08:46:59;17.20;99.90
22558;DHT22;11445;53.816;8.902;2023-08-07T08:49:30;17.10;99.90
22558;DHT22;11445;53.816;8.902;2023-08-07T08:51:58;17.10;99.90
22558;DHT22;11445;53.816;8.902;2023-08-07T08:54:26;17.10;99.90
22558;DHT22;11445;53.816;8.902;2023-08-07T08:56:53;17.10;99.90
22558;DHT22;11445;53.816;8.902;2023-08-07T08:59:20;17.10;99.90
22558;DHT22;11445;53.816;8.902;2023-08-07T09:01:48;17.20;99.90
22558;DHT22;11445;53.816;8.902;2023-08-07T09:04:19;17.30;99.90
22558;DHT22;11445;53.816;8.902;2023-08-07T09:06:45;17.30;99.90
22558;DHT22;11445;53.816;8.902;2023-08-07T09:09:13;17.30;99.90
22558;DHT22;11445;53.816;8.902;2023-08-07T09:11:41;17.40;99.90
22558;DHT22;11445;53.816;8.902;2023-08-07T09:14:10;17.50;99.90
22558;DHT22;11445;53.816;8.902;2023-08-07T09:16:38;17.60;99.90
22558;DHT22;11445;53.816;8.902;2023-08-07T09:19:06;17.70;99.90
22558;DHT22;11445;53.816;8.902;2023-08-07T09:21:35;17.70;99.90
22558;DHT22;11445;53.816;8.902;2023-08-07T09:24:02;17.70;99.90
22558;DHT22;11445;53.816;8.902;2023-08-07T09:26:29;17.70;99.90
22558;DHT22;11445;53.816;8.902;2023-08-07T09:28:58;17.60;99.90
22558;DHT22;11445;53.816;8.902;2023-08-07T09:31:26;17.60;99.90
22558;DHT22;11445;53.816;8.902;2023-08-07T09:33:53;17.50;99.90
22558;DHT22;11445;53.816;8.902;2023-08-07T09:36:20;17.40;99.90
22558;DHT22;11445;53.816;8.902;2023-08-07T09:38:50;17.40;99.90
22558;DHT22;11445;53.816;8.902;2023-08-07T09:41:18;17.40;99.90
22558;DHT22;11445;53.816;8.902;2023-08-07T09:43:45;17.40;99.90
22558;DHT22;11445;53.816;8.902;2023-08-07T09:46:12;17.50;99.90
22558;DHT22;11445;53.816;8.902;2023-08-07T09:48:42;17.50;99.90
22558;DHT22;11445;53.816;8.902;2023-08-07T09:51:10;17.60;99.90
22558;DHT22;11445;53.816;8.902;2023-08-07T09:53:37;17.70;99.90
22558;DHT22;11445;53.816;8.902;2023-08-07T09:56:06;17.70;99.90
22558;DHT22;11445;53.816;8.902;2023-08-07T09:58:33;17.70;99.90
22558;DHT22;11445;53.816;8.902;2023-08-07T10:01:00;17.70;99.90
22558;DHT22;11445;53.816;8.902;2023-08-07T10:03:29;17.70;99.90
22558;DHT22;11445;53.816;8.902;2023-08-07T10:05:57;17.70;99.90
22558;DHT22;11445;53.816;8.902;2023-08-07T10:08:25;17.80;99.90
22558;DHT22;11445;53.816;8.902;2023-08-07T10:10:51;17.80;99.90
22558;DHT22;11445;53.816;8.902;2023-08-07T10:13:21;17.80;99.90
22558;DHT22;11445;53.816;8.902;2023-08-07T10:15:49;17.90;99.90
22558;DHT22;11445;53.816;8.902;2023-08-07T10:18:17;17.80;99.90
22558;DHT22;11445;53.816;8.902;2023-08-07T10:20:43;17.80;99.90
22558;DHT22;11445;53.816;8.902;2023-08-07T10:23:12;17.50;99.90
22558;DHT22;11445;53.816;8.902;2023-08-07T10:25:43;17.30;99.90
22558;DHT22;11445;53.816;8.902;2023-08-07T10:28:14;17.20;99.90
22558;DHT22;11445;53.816;8.902;2023-08-07T10:30:44;17.20;99.90
22558;DHT22;11445;53.816;8.902;2023-08-07T10:33:12;17.20;99.90
22558;DHT22;11445;53.816;8.902;2023-08-07T10:35:45;17.30;99.90
22558;DHT22;11445;53.816;8.902;2023-08-07T10:38:12;17.30;99.90
22558;DHT22;11445;53.816;8.902;2023-08-07T10:40:58;17.40;99.90
22558;DHT22;11445;53.816;8.902;2023-08-07T10:43:25;17.60;99.90
22558;DHT22;11445;53.816;8.902;2023-08-07T10:45:54;17.60;99.90
22558;DHT22;11445;53.816;8.902;2023-08-07T10:48:26;17.60;99.90
22558;DHT22;11445;53.816;8.902;2023-08-07T10:50:56;17.70;99.90
22558;DHT22;11445;53.816;8.902;2023-08-07T10:53:29;17.80;99.90
22558;DHT22;11445;53.816;8.902;2023-08-07T10:55:56;17.80;99.90
22558;DHT22;11445;53.816;8.902;2023-08-07T10:58:24;17.90;99.90
22558;DHT22;11445;53.816;8.902;2023-08-07T11:01:20;17.90;99.90
22558;DHT22;11445;53.816;8.902;2023-08-07T11:03:52;17.70;99.90
22558;DHT22;11445;53.816;8.902;2023-08-07T11:06:22;17.70;99.90
22558;DHT22;11445;53.816;8.902;2023-08-07T11:08:50;17.70;99.90
22558;DHT22;11445;53.816;8.902;2023-08-07T11:11:17;17.70;99.90
22558;DHT22;11445;53.816;8.902;2023-08-07T11:13:45;17.50;99.90
22558;DHT22;11445;53.816;8.902;2023-08-07T11:16:13;17.50;99.90
22558;DHT22;11445;53.816;8.902;2023-08-07T11:18:40;17.30;99.90
22558;DHT22;11445;53.816;8.902;2023-08-07T11:21:09;17.20;99.90
22558;DHT22;11445;53.816;8.902;2023-08-07T11:23:36;17.00;99.90
22558;DHT22;11445;53.816;8.902;2023-08-07T11:26:03;16.90;99.90
22558;DHT22;11445;53.816;8.902;2023-08-07T11:28:31;16.90;99.90
22558;DHT22;11445;53.816;8.902;2023-08-07T11:30:58;17.10;99.90
22558;DHT22;11445;53.816;8.902;2023-08-07T11:33:27;17.20;99.90
22558;DHT22;11445;53.816;8.902;2023-08-07T11:35:55;17.30;99.90
22558;DHT22;11445;53.816;8.902;2023-08-07T11:38:32;17.50;99.90
22558;DHT22;11445;53.816;8.902;2023-08-07T11:41:00;17.50;99.90
22558;DHT22;11445;53.816;8.902;2023-08-07T11:43:28;17.60;99.90
22558;DHT22;11445;53.816;8.902;2023-08-07T11:45:56;17.60;99.90
22558;DHT22;11445;53.816;8.902;2023-08-07T11:48:24;17.60;99.90
22558;DHT22;11445;53.816;8.902;2023-08-07T11:50:52;17.60;99.90
22558;DHT22;11445;53.816;8.902;2023-08-07T11:53:20;17.70;99.90
22558;DHT22;11445;53.816;8.902;2023-08-07T11:55:47;17.60;99.90
22558;DHT22;11445;53.816;8.902;2023-08-07T11:58:18;17.60;99.90
22558;DHT22;11445;53.816;8.902;2023-08-07T12:00:46;17.70;99.90
22558;DHT22;11445;53.816;8.902;2023-08-07T12:03:27;17.60;99.90
22558;DHT22;11445;53.816;8.902;2023-08-07T12:05:57;17.30;99.90
22558;DHT22;11445;53.816;8.902;2023-08-07T12:08:24;17.10;99.90
22558;DHT22;11445;53.816;8.902;2023-08-07T12:10:53;16.80;99.90
22558;DHT22;11445;53.816;8.902;2023-08-07T12:13:23;16.60;99.90
22558;DHT22;11445;53.816;8.902;2023-08-07T12:15:51;16.40;99.90
22558;DHT22;11445;53.816;8.902;2023-08-07T12:18:19;16.40;99.90
22558;DHT22;11445;53.816;8.902;2023-08-07T12:20:46;16.60;99.90
22558;DHT22;11445;53.816;8.902;2023-08-07T12:23:15;16.80;99.90
22558;DHT22;11445;53.816;8.902;2023-08-07T12:25:43;17.00;99.90
22558;DHT22;11445;53.816;8.902;2023-08-07T12:28:09;17.20;99.90
22558;DHT22;11445;53.816;8.902;2023-08-07T12:30:37;17.30;99.90
22558;DHT22;11445;53.816;8.902;2023-08-07T12:33:04;17.50;99.90
22558;DHT22;11445;53.816;8.902;2023-08-07T12:35:33;17.60;99.90
22558;DHT22;11445;53.816;8.902;2023-08-07T12:38:00;17.80;99.90
22558;DHT22;11445;53.816;8.902;2023-08-07T12:40:29;17.80;99.90
22558;DHT22;11445;53.816;8.902;2023-08-07T12:42:56;17.80;99.90
22558;DHT22;11445;53.816;8.902;2023-08-07T12:45:23;17.80;99.90
22558;DHT22;11445;53.816;8.902;2023-08-07T12:47:50;17.70;99.90
22558;DHT22;11445;53.816;8.902;2023-08-07T12:50:17;17.70;99.90
22558;DHT22;11445;53.816;8.902;2023-08-07T12:52:43;17.60;99.90
22558;DHT22;11445;53.816;8.902;2023-08-07T12:55:10;17.50;99.90
22558;DHT22;11445;53.816;8.902;2023-08-07T12:57:42;17.40;99.90
22558;DHT22;11445;53.816;8.902;2023-08-07T13:00:10;17.30;99.90
22558;DHT22;11445;53.816;8.902;2023-08-07T13:02:40;17.30;99.90
22558;DHT22;11445;53.816;8.902;2023-08-07T13:05:07;17.20;99.90
22558;DHT22;11445;53.816;8.902;2023-08-07T13:07:35;17.10;99.90
22558;DHT22;11445;53.816;8.902;2023-08-07T13:10:04;17.20;99.90
22558;DHT22;11445;53.816;8.902;2023-08-07T13:12:30;17.30;99.90
22558;DHT22;11445;53.816;8.902;2023-08-07T13:15:01;17.30;99.90
22558;DHT22;11445;53.816;8.902;2023-08-07T13:17:27;17.40;99.90
22558;DHT22;11445;53.816;8.902;2023-08-07T13:19:54;17.60;99.90
22558;DHT22;11445;53.816;8.902;2023-08-07T13:22:21;17.70;99.90
22558;DHT22;11445;53.816;8.902;2023-08-07T13:24:48;17.80;99.90
22558;DHT22;11445;53.816;8.902;2023-08-07T13:27:14;17.90;99.90
22558;DHT22;11445;53.816;8.902;2023-08-07T13:29:41;17.80;99.90
22558;DHT22;11445;53.816;8.902;2023-08-07T13:32:09;17.70;99.90
22558;DHT22;11445;53.816;8.902;2023-08-07T13:34:36;17.60;99.90
22558;DHT22;11445;53.816;8.902;2023-08-07T13:37:04;17.40;99.90
22558;DHT22;11445;53.816;8.902;2023-08-07T13:39:32;17.50;99.90
22558;DHT22;11445;53.816;8.902;2023-08-07T13:41:59;17.50;99.90
22558;DHT22;11445;53.816;8.902;2023-08-07T13:44:26;17.50;99.90
22558;DHT22;11445;53.816;8.902;2023-08-07T13:46:53;17.50;99.90
22558;DHT22;11445;53.816;8.902;2023-08-07T13:49:22;17.50;99.90
22558;DHT22;11445;53.816;8.902;2023-08-07T13:51:49;17.60;99.90
22558;DHT22;11445;53.816;8.902;2023-08-07T13:54:15;17.60;99.90
22558;DHT22;11445;53.816;8.902;2023-08-07T13:56:42;17.60;99.90
22558;DHT22;11445;53.816;8.902;2023-08-07T13:59:09;17.70;99.90
22558;DHT22;11445;53.816;8.902;2023-08-07T14:01:36;17.70;99.90
22558;DHT22;11445;53.816;8.902;2023-08-07T14:04:03;17.60;99.90
22558;DHT22;11445;53.816;8.902;2023-08-07T14:06:31;17.60;99.90
22558;DHT22;11445;53.816;8.902;2023-08-07T14:08:58;17.50;99.90
22558;DHT22;11445;53.816;8.902;2023-08-07T14:11:25;17.30;99.90
22558;DHT22;11445;53.816;8.902;2023-08-07T14:13:57;17.30;99.90
22558;DHT22;11445;53.816;8.902;2023-08-07T14:16:25;17.40;99.90
22558;DHT22;11445;53.816;8.902;2023-08-07T14:18:52;17.40;99.90
22558;DHT22;11445;53.816;8.902;2023-08-07T14:21:18;17.40;99.90
22558;DHT22;11445;53.816;8.902;2023-08-07T14:23:47;17.30;99.90
22558;DHT22;11445;53.816;8.902;2023-08-07T14:26:15;17.30;99.90
22558;DHT22;11445;53.816;8.902;2023-08-07T14:28:43;17.30;99.90
22558;DHT22;11445;53.816;8.902;2023-08-07T14:31:10;17.30;99.90
22558;DHT22;11445;53.816;8.902;2023-08-07T14:33:37;17.50;99.90
22558;DHT22;11445;53.816;8.902;2023-08-07T14:36:05;17.50;99.90
22558;DHT22;11445;53.816;8.902;2023-08-07T14:38:31;17.50;99.90
22558;DHT22;11445;53.816;8.902;2023-08-07T14:41:00;17.50;99.90
22558;DHT22;11445;53.816;8.902;2023-08-07T14:43:29;17.40;99.90
22558;DHT22;11445;53.816;8.902;2023-08-07T14:45:56;17.50;99.90
22558;DHT22;11445;53.816;8.902;2023-08-07T14:48:23;17.40;99.90
22558;DHT22;11445;53.816;8.902;2023-08-07T14:50:50;17.40;99.90
22558;DHT22;11445;53.816;8.902;2023-08-07T14:53:17;17.20;99.90
22558;DHT22;11445;53.816;8.902;2023-08-07T14:55:44;17.10;99.90
22558;DHT22;11445;53.816;8.902;2023-08-07T14:58:13;16.90;99.90
22558;DHT22;11445;53.816;8.902;2023-08-07T15:00:39;16.80;99.90
22558;DHT22;11445;53.816;8.902;2023-08-07T15:03:06;16.60;99.90
22558;DHT22;11445;53.816;8.902;2023-08-07T15:05:33;16.50;99.90
22558;DHT22;11445;53.816;8.902;2023-08-07T15:08:01;16.50;99.90
22558;DHT22;11445;53.816;8.902;2023-08-07T15:10:27;16.40;99.90
22558;DHT22;11445;53.816;8.902;2023-08-07T15:12:54;16.30;99.90
22558;DHT22;11445;53.816;8.902;2023-08-07T15:15:23;16.20;99.90
22558;DHT22;11445;53.816;8.902;2023-08-07T15:17:50;16.10;99.90
22558;DHT22;11445;53.816;8.902;2023-08-07T15:20:18;16.10;99.90
22558;DHT22;11445;53.816;8.902;2023-08-07T15:22:46;16.20;99.90
22558;DHT22;11445;53.816;8.902;2023-08-07T15:25:13;16.40;99.90
22558;DHT22;11445;53.816;8.902;2023-08-07T15:27:40;16.60;99.90
22558;DHT22;11445;53.816;8.902;2023-08-07T15:30:07;16.80;99.90
22558;DHT22;11445;53.816;8.902;2023-08-07T15:32:37;17.00;99.90